sensor_id;sensor_type;location;lat;lon;timestamp;temperature;humidity
12329;DHT22;6230;52.390;10.256;2023-03-08T00:00:47;4.50;74.90
12329;DHT22;6230;52.390;10.256;2023-03-08T00:03:14;4.50;74.90
12329;DHT22;6230;52.390;10.256;2023-03-08T00:05:40;4.50;74.90
12329;DHT22;6230;52.390;10.256;2023-03-08T00:08:05;4.50;74.90
12329;DHT22;6230;52.390;10.256;2023-03-08T00:10:31;4.50;74.90
12329;DHT22;6230;52.390;10.256;2023-03-08T00:12:56;4.50;74.90
12329;DHT22;6230;52.390;10.256;2023-03-08T00:15:22;4.50;75.00
12329;DHT22;6230;52.390;10.256;2023-03-08T00:17:47;4.50;75.00
12329;DHT22;6230;52.390;10.256;2023-03-08T00:20:13;4.50;75.00
12329;DHT22;6230;52.390;10.256;2023-03-08T00:22:40;4.50;75.20
12329;DHT22;6230;52.390;10.256;2023-03-08T00:25:08;4.50;75.00
12329;DHT22;6230;52.390;10.256;2023-03-08T00:27:34;4.50;75.00
12329;DHT22;6230;52.390;10.256;2023-03-08T00:30:00;4.50;75.10
12329;DHT22;6230;52.390;10.256;2023-03-08T00:32:26;4.50;75.10
12329;DHT22;6230;52.390;10.256;2023-03-08T00:34:53;4.50;75.00
12329;DHT22;6230;52.390;10.256;2023-03-08T00:37:19;4.50;75.10
12329;DHT22;6230;52.390;10.256;2023-03-08T00:39:52;4.60;75.10
12329;DHT22;6230;52.390;10.256;2023-03-08T00:42:21;4.60;75.10
12329;DHT22;6230;52.390;10.256;2023-03-08T00:44:47;4.60;75.00
12329;DHT22;6230;52.390;10.256;2023-03-08T00:47:13;4.60;74.90
12329;DHT22;6230;52.390;10.256;2023-03-08T00:49:39;4.60;74.90
12329;DHT22;6230;52.390;10.256;2023-03-08T00:52:05;4.60;75.00
12329;DHT22;6230;52.390;10.256;2023-03-08T00:54:31;4.60;75.00
12329;DHT22;6230;52.390;10.256;2023-03-08T00:56:56;4.60;75.00
12329;DHT22;6230;52.390;10.256;2023-03-08T00:59:22;4.60;75.00
12329;DHT22;6230;52.390;10.256;2023-03-08T01:01:47;4.60;75.00
12329;DHT22;6230;52.390;10.256;2023-03-08T01:04:13;4.60;75.00
12329;DHT22;6230;52.390;10.256;2023-03-08T01:06:39;4.60;75.00
12329;DHT22;6230;52.390;10.256;2023-03-08T01:09:05;4.60;75.00
12329;DHT22;6230;52.390;10.256;2023-03-08T01:11:31;4.60;75.00
12329;DHT22;6230;52.390;10.256;2023-03-08T01:13:59;4.60;75.00
12329;DHT22;6230;52.390;10.256;2023-03-08T01:16:27;4.60;75.00
12329;DHT22;6230;52.390;10.256;2023-03-08T01:18:54;4.60;75.00
12329;DHT22;6230;52.390;10.256;2023-03-08T01:21:20;4.60;75.10
12329;DHT22;6230;52.390;10.256;2023-03-08T01:23:46;4.60;75.10
12329;DHT22;6230;52.390;10.256;2023-03-08T01:26:14;4.60;75.00
12329;DHT22;6230;52.390;10.256;2023-03-08T01:28:40;4.60;75.00
12329;DHT22;6230;52.390;10.256;2023-03-08T01:33:34;4.60;75.00
12329;DHT22;6230;52.390;10.256;2023-03-08T01:36:05;4.60;75.00
12329;DHT22;6230;52.390;10.256;2023-03-08T01:38:31;4.70;75.00
12329;DHT22;6230;52.390;10.256;2023-03-08T01:40:58;4.70;74.80
12329;DHT22;6230;52.390;10.256;2023-03-08T01:43:29;4.70;74.80
12329;DHT22;6230;52.390;10.256;2023-03-08T01:51:12;4.70;74.80
12329;DHT22;6230;52.390;10.256;2023-03-08T01:53:40;4.70;74.70
12329;DHT22;6230;52.390;10.256;2023-03-08T01:56:09;4.70;74.60
12329;DHT22;6230;52.390;10.256;2023-03-08T01:58:37;4.70;74.60
12329;DHT22;6230;52.390;10.256;2023-03-08T02:01:03;4.70;74.70
12329;DHT22;6230;52.390;10.256;2023-03-08T02:03:29;4.70;74.50
12329;DHT22;6230;52.390;10.256;2023-03-08T02:05:54;4.80;74.60
12329;DHT22;6230;52.390;10.256;2023-03-08T02:08:21;4.80;74.60
12329;DHT22;6230;52.390;10.256;2023-03-08T02:10:46;4.70;74.50
12329;DHT22;6230;52.390;10.256;2023-03-08T02:13:12;4.70;74.50
12329;DHT22;6230;52.390;10.256;2023-03-08T02:15:37;4.70;74.50
12329;DHT22;6230;52.390;10.256;2023-03-08T02:18:03;4.70;74.50
12329;DHT22;6230;52.390;10.256;2023-03-08T02:20:37;4.70;75.30
12329;DHT22;6230;52.390;10.256;2023-03-08T02:23:23;4.70;74.50
12329;DHT22;6230;52.390;10.256;2023-03-08T02:25:51;4.70;74.50
12329;DHT22;6230;52.390;10.256;2023-03-08T02:28:17;4.70;74.40
12329;DHT22;6230;52.390;10.256;2023-03-08T02:30:43;4.70;74.40
12329;DHT22;6230;52.390;10.256;2023-03-08T02:33:08;4.70;74.40
12329;DHT22;6230;52.390;10.256;2023-03-08T02:35:34;4.70;74.40
12329;DHT22;6230;52.390;10.256;2023-03-08T02:38:00;4.70;74.30
12329;DHT22;6230;52.390;10.256;2023-03-08T02:40:25;4.60;74.30
12329;DHT22;6230;52.390;10.256;2023-03-08T02:42:51;4.60;74.20
12329;DHT22;6230;52.390;10.256;2023-03-08T02:45:16;4.60;74.30
12329;DHT22;6230;52.390;10.256;2023-03-08T02:47:42;4.60;74.20
12329;DHT22;6230;52.390;10.256;2023-03-08T02:50:08;4.60;74.20
12329;DHT22;6230;52.390;10.256;2023-03-08T02:52:34;4.70;74.20
12329;DHT22;6230;52.390;10.256;2023-03-08T02:54:59;4.70;74.20
12329;DHT22;6230;52.390;10.256;2023-03-08T02:57:25;4.80;74.20
12329;DHT22;6230;52.390;10.256;2023-03-08T02:59:50;4.70;74.20
12329;DHT22;6230;52.390;10.256;2023-03-08T03:02:16;4.70;74.20
12329;DHT22;6230;52.390;10.256;2023-03-08T03:04:41;4.70;74.10
12329;DHT22;6230;52.390;10.256;2023-03-08T03:07:07;4.70;74.20
12329;DHT22;6230;52.390;10.256;2023-03-08T03:09:34;4.70;74.10
12329;DHT22;6230;52.390;10.256;2023-03-08T03:12:00;4.70;74.80
12329;DHT22;6230;52.390;10.256;2023-03-08T03:14:28;4.70;74.00
12329;DHT22;6230;52.390;10.256;2023-03-08T03:16:54;4.60;73.90
12329;DHT22;6230;52.390;10.256;2023-03-08T03:19:19;4.70;74.00
12329;DHT22;6230;52.390;10.256;2023-03-08T03:21:45;4.60;73.90
12329;DHT22;6230;52.390;10.256;2023-03-08T03:24:10;4.60;73.90
12329;DHT22;6230;52.390;10.256;2023-03-08T03:26:36;4.60;73.90
12329;DHT22;6230;52.390;10.256;2023-03-08T03:29:01;4.60;73.90
12329;DHT22;6230;52.390;10.256;2023-03-08T03:31:27;4.60;73.80
12329;DHT22;6230;52.390;10.256;2023-03-08T03:33:53;4.60;73.90
12329;DHT22;6230;52.390;10.256;2023-03-08T03:36:20;4.60;73.90
12329;DHT22;6230;52.390;10.256;2023-03-08T03:38:47;4.60;73.90
12329;DHT22;6230;52.390;10.256;2023-03-08T03:41:18;4.60;73.80
12329;DHT22;6230;52.390;10.256;2023-03-08T03:43:45;4.60;73.70
12329;DHT22;6230;52.390;10.256;2023-03-08T03:46:12;4.60;73.70
12329;DHT22;6230;52.390;10.256;2023-03-08T03:48:38;4.60;73.70
12329;DHT22;6230;52.390;10.256;2023-03-08T03:51:07;4.60;73.70
12329;DHT22;6230;52.390;10.256;2023-03-08T03:53:34;4.60;73.70
12329;DHT22;6230;52.390;10.256;2023-03-08T03:56:09;4.60;73.70
12329;DHT22;6230;52.390;10.256;2023-03-08T03:58:36;4.60;73.80
12329;DHT22;6230;52.390;10.256;2023-03-08T04:01:11;4.60;73.80
12329;DHT22;6230;52.390;10.256;2023-03-08T04:03:36;4.50;73.70
12329;DHT22;6230;52.390;10.256;2023-03-08T04:06:11;4.50;73.70
12329;DHT22;6230;52.390;10.256;2023-03-08T04:08:37;4.50;73.80
12329;DHT22;6230;52.390;10.256;2023-03-08T04:11:10;4.40;73.60
12329;DHT22;6230;52.390;10.256;2023-03-08T04:13:37;4.40;73.80
12329;DHT22;6230;52.390;10.256;2023-03-08T04:16:13;4.40;74.50
12329;DHT22;6230;52.390;10.256;2023-03-08T04:18:39;4.40;73.80
12329;DHT22;6230;52.390;10.256;2023-03-08T04:21:05;4.40;73.80
12329;DHT22;6230;52.390;10.256;2023-03-08T04:23:31;4.30;73.80
12329;DHT22;6230;52.390;10.256;2023-03-08T04:25:57;4.30;73.70
12329;DHT22;6230;52.390;10.256;2023-03-08T04:28:22;4.30;73.80
12329;DHT22;6230;52.390;10.256;2023-03-08T04:30:48;4.30;73.70
12329;DHT22;6230;52.390;10.256;2023-03-08T04:33:13;4.30;73.80
12329;DHT22;6230;52.390;10.256;2023-03-08T04:35:39;4.20;73.80
12329;DHT22;6230;52.390;10.256;2023-03-08T04:38:04;4.20;73.80
12329;DHT22;6230;52.390;10.256;2023-03-08T04:40:30;4.20;73.90
12329;DHT22;6230;52.390;10.256;2023-03-08T04:42:55;4.20;73.90
12329;DHT22;6230;52.390;10.256;2023-03-08T04:45:21;4.20;73.90
12329;DHT22;6230;52.390;10.256;2023-03-08T04:47:47;4.20;74.00
12329;DHT22;6230;52.390;10.256;2023-03-08T04:50:12;4.20;74.00
12329;DHT22;6230;52.390;10.256;2023-03-08T04:52:38;4.20;74.00
12329;DHT22;6230;52.390;10.256;2023-03-08T04:55:04;4.20;74.00
12329;DHT22;6230;52.390;10.256;2023-03-08T04:57:30;4.20;73.90
12329;DHT22;6230;52.390;10.256;2023-03-08T04:59:56;4.20;73.80
12329;DHT22;6230;52.390;10.256;2023-03-08T05:02:22;4.20;73.80
12329;DHT22;6230;52.390;10.256;2023-03-08T05:04:48;4.20;73.80
12329;DHT22;6230;52.390;10.256;2023-03-08T05:07:14;4.20;73.80
12329;DHT22;6230;52.390;10.256;2023-03-08T05:09:40;4.20;73.90
12329;DHT22;6230;52.390;10.256;2023-03-08T05:12:05;4.10;73.90
12329;DHT22;6230;52.390;10.256;2023-03-08T05:14:31;4.10;73.90
12329;DHT22;6230;52.390;10.256;2023-03-08T05:16:57;4.10;73.90
12329;DHT22;6230;52.390;10.256;2023-03-08T05:19:23;4.10;74.00
12329;DHT22;6230;52.390;10.256;2023-03-08T05:21:49;4.10;74.00
12329;DHT22;6230;52.390;10.256;2023-03-08T05:24:14;4.10;74.00
12329;DHT22;6230;52.390;10.256;2023-03-08T05:26:40;4.10;74.00
12329;DHT22;6230;52.390;10.256;2023-03-08T05:29:05;4.10;74.00
12329;DHT22;6230;52.390;10.256;2023-03-08T05:31:32;4.10;74.00
12329;DHT22;6230;52.390;10.256;2023-03-08T05:33:58;4.10;74.00
12329;DHT22;6230;52.390;10.256;2023-03-08T05:36:23;4.10;74.10
12329;DHT22;6230;52.390;10.256;2023-03-08T05:38:53;4.10;74.10
12329;DHT22;6230;52.390;10.256;2023-03-08T05:41:19;4.10;74.10
12329;DHT22;6230;52.390;10.256;2023-03-08T05:43:45;4.10;74.10
12329;DHT22;6230;52.390;10.256;2023-03-08T05:46:13;4.10;74.10
12329;DHT22;6230;52.390;10.256;2023-03-08T05:48:39;4.10;74.00
12329;DHT22;6230;52.390;10.256;2023-03-08T05:51:06;4.10;74.00
12329;DHT22;6230;52.390;10.256;2023-03-08T05:53:32;4.10;73.90
12329;DHT22;6230;52.390;10.256;2023-03-08T05:56:07;4.10;73.90
12329;DHT22;6230;52.390;10.256;2023-03-08T05:58:34;4.10;73.80
12329;DHT22;6230;52.390;10.256;2023-03-08T06:01:07;4.10;73.80
12329;DHT22;6230;52.390;10.256;2023-03-08T06:03:33;4.10;73.70
12329;DHT22;6230;52.390;10.256;2023-03-08T06:05:58;4.20;73.70
12329;DHT22;6230;52.390;10.256;2023-03-08T06:08:24;4.20;73.60
12329;DHT22;6230;52.390;10.256;2023-03-08T06:10:49;4.10;73.50
12329;DHT22;6230;52.390;10.256;2023-03-08T06:13:15;4.10;73.50
12329;DHT22;6230;52.390;10.256;2023-03-08T06:15:40;4.20;73.60
12329;DHT22;6230;52.390;10.256;2023-03-08T06:18:06;4.20;73.50
12329;DHT22;6230;52.390;10.256;2023-03-08T06:20:31;4.20;73.50
12329;DHT22;6230;52.390;10.256;2023-03-08T06:22:57;4.20;73.60
12329;DHT22;6230;52.390;10.256;2023-03-08T06:25:22;4.20;73.50
12329;DHT22;6230;52.390;10.256;2023-03-08T06:27:48;4.20;73.50
12329;DHT22;6230;52.390;10.256;2023-03-08T06:30:14;4.20;73.50
12329;DHT22;6230;52.390;10.256;2023-03-08T06:32:39;4.20;73.50
12329;DHT22;6230;52.390;10.256;2023-03-08T06:35:07;4.20;73.50
12329;DHT22;6230;52.390;10.256;2023-03-08T06:37:34;4.20;73.50
12329;DHT22;6230;52.390;10.256;2023-03-08T06:40:00;4.20;73.50
12329;DHT22;6230;52.390;10.256;2023-03-08T06:42:26;4.20;73.50
12329;DHT22;6230;52.390;10.256;2023-03-08T06:44:52;4.20;73.50
12329;DHT22;6230;52.390;10.256;2023-03-08T06:47:17;4.20;73.60
12329;DHT22;6230;52.390;10.256;2023-03-08T06:49:43;4.20;73.60
12329;DHT22;6230;52.390;10.256;2023-03-08T06:52:08;4.20;73.60
12329;DHT22;6230;52.390;10.256;2023-03-08T06:54:34;4.20;73.60
12329;DHT22;6230;52.390;10.256;2023-03-08T06:56:59;4.20;73.50
12329;DHT22;6230;52.390;10.256;2023-03-08T06:59:25;4.30;73.50
12329;DHT22;6230;52.390;10.256;2023-03-08T07:01:50;4.40;73.50
12329;DHT22;6230;52.390;10.256;2023-03-08T07:04:16;4.40;73.30
12329;DHT22;6230;52.390;10.256;2023-03-08T07:06:43;4.40;73.40
12329;DHT22;6230;52.390;10.256;2023-03-08T07:09:09;4.40;73.30
12329;DHT22;6230;52.390;10.256;2023-03-08T07:11:34;4.40;73.40
12329;DHT22;6230;52.390;10.256;2023-03-08T07:14:00;4.40;73.40
12329;DHT22;6230;52.390;10.256;2023-03-08T07:16:26;4.40;73.40
12329;DHT22;6230;52.390;10.256;2023-03-08T07:18:52;4.40;73.40
12329;DHT22;6230;52.390;10.256;2023-03-08T07:21:17;4.40;73.40
12329;DHT22;6230;52.390;10.256;2023-03-08T07:23:43;4.50;73.50
12329;DHT22;6230;52.390;10.256;2023-03-08T07:26:09;4.50;73.50
12329;DHT22;6230;52.390;10.256;2023-03-08T07:28:35;4.50;73.50
12329;DHT22;6230;52.390;10.256;2023-03-08T07:31:00;4.50;73.50
12329;DHT22;6230;52.390;10.256;2023-03-08T07:33:26;4.50;73.50
12329;DHT22;6230;52.390;10.256;2023-03-08T07:35:52;4.50;73.50
12329;DHT22;6230;52.390;10.256;2023-03-08T07:38:17;4.60;73.50
12329;DHT22;6230;52.390;10.256;2023-03-08T07:40:43;4.60;73.50
12329;DHT22;6230;52.390;10.256;2023-03-08T07:43:09;4.60;73.50
12329;DHT22;6230;52.390;10.256;2023-03-08T07:45:36;4.60;73.50
12329;DHT22;6230;52.390;10.256;2023-03-08T07:48:04;4.60;73.60
12329;DHT22;6230;52.390;10.256;2023-03-08T07:50:30;4.60;73.60
12329;DHT22;6230;52.390;10.256;2023-03-08T07:52:55;4.70;74.40
12329;DHT22;6230;52.390;10.256;2023-03-08T07:55:21;4.70;73.60
12329;DHT22;6230;52.390;10.256;2023-03-08T07:57:46;4.70;73.60
12329;DHT22;6230;52.390;10.256;2023-03-08T08:00:12;4.70;73.60
12329;DHT22;6230;52.390;10.256;2023-03-08T08:02:38;4.70;73.50
12329;DHT22;6230;52.390;10.256;2023-03-08T08:05:04;4.80;73.50
12329;DHT22;6230;52.390;10.256;2023-03-08T08:07:30;4.80;73.50
12329;DHT22;6230;52.390;10.256;2023-03-08T08:09:56;4.80;73.40
12329;DHT22;6230;52.390;10.256;2023-03-08T08:12:21;4.80;73.40
12329;DHT22;6230;52.390;10.256;2023-03-08T08:14:50;4.80;73.40
12329;DHT22;6230;52.390;10.256;2023-03-08T08:17:18;4.80;73.40
12329;DHT22;6230;52.390;10.256;2023-03-08T08:19:44;4.90;73.50
12329;DHT22;6230;52.390;10.256;2023-03-08T08:22:09;4.90;73.40
12329;DHT22;6230;52.390;10.256;2023-03-08T08:24:35;4.90;73.40
12329;DHT22;6230;52.390;10.256;2023-03-08T08:27:00;4.90;73.40
12329;DHT22;6230;52.390;10.256;2023-03-08T08:29:26;5.00;73.30
12329;DHT22;6230;52.390;10.256;2023-03-08T08:31:51;5.00;73.30
12329;DHT22;6230;52.390;10.256;2023-03-08T08:34:18;5.00;73.20
12329;DHT22;6230;52.390;10.256;2023-03-08T08:36:44;5.00;73.20
12329;DHT22;6230;52.390;10.256;2023-03-08T08:39:10;5.00;73.10
12329;DHT22;6230;52.390;10.256;2023-03-08T08:41:36;5.10;73.10
12329;DHT22;6230;52.390;10.256;2023-03-08T08:44:01;5.10;73.10
12329;DHT22;6230;52.390;10.256;2023-03-08T08:46:27;5.10;73.10
12329;DHT22;6230;52.390;10.256;2023-03-08T08:48:54;5.10;73.00
12329;DHT22;6230;52.390;10.256;2023-03-08T08:51:20;5.10;72.90
12329;DHT22;6230;52.390;10.256;2023-03-08T08:53:46;5.20;72.90
12329;DHT22;6230;52.390;10.256;2023-03-08T08:56:17;5.20;72.90
12329;DHT22;6230;52.390;10.256;2023-03-08T08:58:43;5.20;72.80
12329;DHT22;6230;52.390;10.256;2023-03-08T09:01:17;5.20;72.70
12329;DHT22;6230;52.390;10.256;2023-03-08T09:03:44;5.20;72.60
12329;DHT22;6230;52.390;10.256;2023-03-08T09:06:10;5.20;72.60
12329;DHT22;6230;52.390;10.256;2023-03-08T09:08:36;5.20;72.60
12329;DHT22;6230;52.390;10.256;2023-03-08T09:11:07;5.20;72.50
12329;DHT22;6230;52.390;10.256;2023-03-08T09:13:33;5.20;72.50
12329;DHT22;6230;52.390;10.256;2023-03-08T09:15:59;5.20;72.50
12329;DHT22;6230;52.390;10.256;2023-03-08T09:18:25;5.30;72.50
12329;DHT22;6230;52.390;10.256;2023-03-08T09:20:50;5.30;72.40
12329;DHT22;6230;52.390;10.256;2023-03-08T09:23:16;5.30;72.30
12329;DHT22;6230;52.390;10.256;2023-03-08T09:25:42;5.40;72.30
12329;DHT22;6230;52.390;10.256;2023-03-08T09:28:09;5.40;72.20
12329;DHT22;6230;52.390;10.256;2023-03-08T09:30:34;5.40;72.20
12329;DHT22;6230;52.390;10.256;2023-03-08T09:33:00;5.40;72.20
12329;DHT22;6230;52.390;10.256;2023-03-08T09:35:26;5.50;72.10
12329;DHT22;6230;52.390;10.256;2023-03-08T09:37:52;5.50;72.00
12329;DHT22;6230;52.390;10.256;2023-03-08T09:40:24;5.60;72.00
12329;DHT22;6230;52.390;10.256;2023-03-08T09:42:50;5.60;71.90
12329;DHT22;6230;52.390;10.256;2023-03-08T09:45:23;5.70;71.90
12329;DHT22;6230;52.390;10.256;2023-03-08T09:48:12;5.70;71.80
12329;DHT22;6230;52.390;10.256;2023-03-08T09:50:55;5.70;71.90
12329;DHT22;6230;52.390;10.256;2023-03-08T09:53:29;5.70;71.70
12329;DHT22;6230;52.390;10.256;2023-03-08T09:56:10;5.80;71.80
12329;DHT22;6230;52.390;10.256;2023-03-08T09:58:45;5.80;71.50
12329;DHT22;6230;52.390;10.256;2023-03-08T10:01:37;5.80;71.50
12329;DHT22;6230;52.390;10.256;2023-03-08T10:06:59;5.90;71.50
12329;DHT22;6230;52.390;10.256;2023-03-08T10:09:47;5.90;71.30
12329;DHT22;6230;52.390;10.256;2023-03-08T10:15:19;6.00;71.40
12329;DHT22;6230;52.390;10.256;2023-03-08T10:17:51;6.00;71.30
12329;DHT22;6230;52.390;10.256;2023-03-08T10:22:55;6.00;71.10
12329;DHT22;6230;52.390;10.256;2023-03-08T10:25:23;6.00;70.70
12329;DHT22;6230;52.390;10.256;2023-03-08T10:27:51;6.00;70.50
12329;DHT22;6230;52.390;10.256;2023-03-08T10:30:21;5.90;70.50
12329;DHT22;6230;52.390;10.256;2023-03-08T10:32:49;5.90;70.70
12329;DHT22;6230;52.390;10.256;2023-03-08T10:35:16;6.00;71.00
12329;DHT22;6230;52.390;10.256;2023-03-08T10:37:42;6.00;70.60
12329;DHT22;6230;52.390;10.256;2023-03-08T10:40:17;6.00;70.60
12329;DHT22;6230;52.390;10.256;2023-03-08T10:43:01;6.10;70.50
12329;DHT22;6230;52.390;10.256;2023-03-08T10:45:29;6.10;70.60
12329;DHT22;6230;52.390;10.256;2023-03-08T10:48:00;6.20;70.20
12329;DHT22;6230;52.390;10.256;2023-03-08T10:50:29;6.20;70.00
12329;DHT22;6230;52.390;10.256;2023-03-08T10:52:55;6.20;70.00
12329;DHT22;6230;52.390;10.256;2023-03-08T10:55:39;6.20;70.10
12329;DHT22;6230;52.390;10.256;2023-03-08T11:00:52;6.30;69.60
12329;DHT22;6230;52.390;10.256;2023-03-08T11:03:20;6.30;69.50
12329;DHT22;6230;52.390;10.256;2023-03-08T11:06:01;6.30;69.40
12329;DHT22;6230;52.390;10.256;2023-03-08T11:08:29;6.30;69.50
12329;DHT22;6230;52.390;10.256;2023-03-08T11:11:10;6.30;70.30
12329;DHT22;6230;52.390;10.256;2023-03-08T11:13:49;6.40;69.60
12329;DHT22;6230;52.390;10.256;2023-03-08T11:16:43;6.40;68.70
12329;DHT22;6230;52.390;10.256;2023-03-08T11:22:17;6.20;68.80
12329;DHT22;6230;52.390;10.256;2023-03-08T11:32:50;6.40;68.80
12329;DHT22;6230;52.390;10.256;2023-03-08T11:35:22;6.40;68.70
12329;DHT22;6230;52.390;10.256;2023-03-08T11:37:54;6.50;68.80
12329;DHT22;6230;52.390;10.256;2023-03-08T11:40:33;6.50;68.60
12329;DHT22;6230;52.390;10.256;2023-03-08T11:54:08;6.70;67.90
12329;DHT22;6230;52.390;10.256;2023-03-08T11:56:54;6.60;67.50
12329;DHT22;6230;52.390;10.256;2023-03-08T11:59:43;6.60;67.60
12329;DHT22;6230;52.390;10.256;2023-03-08T12:02:23;6.50;67.40
12329;DHT22;6230;52.390;10.256;2023-03-08T12:05:01;6.50;67.70
12329;DHT22;6230;52.390;10.256;2023-03-08T12:07:49;6.50;67.70
12329;DHT22;6230;52.390;10.256;2023-03-08T12:10:34;6.50;67.90
12329;DHT22;6230;52.390;10.256;2023-03-08T12:18:13;6.50;68.10
12329;DHT22;6230;52.390;10.256;2023-03-08T12:20:42;6.50;68.00
12329;DHT22;6230;52.390;10.256;2023-03-08T12:23:34;6.50;68.10
12329;DHT22;6230;52.390;10.256;2023-03-08T12:26:15;6.40;68.10
12329;DHT22;6230;52.390;10.256;2023-03-08T12:28:50;6.40;68.00
12329;DHT22;6230;52.390;10.256;2023-03-08T12:31:27;6.30;67.90
12329;DHT22;6230;52.390;10.256;2023-03-08T12:33:56;6.20;68.00
12329;DHT22;6230;52.390;10.256;2023-03-08T12:36:39;6.10;68.40
12329;DHT22;6230;52.390;10.256;2023-03-08T12:39:08;6.00;68.90
12329;DHT22;6230;52.390;10.256;2023-03-08T12:41:34;6.00;69.20
12329;DHT22;6230;52.390;10.256;2023-03-08T12:44:05;6.00;69.10
12329;DHT22;6230;52.390;10.256;2023-03-08T12:46:49;5.90;69.10
12329;DHT22;6230;52.390;10.256;2023-03-08T12:49:31;5.90;69.20
12329;DHT22;6230;52.390;10.256;2023-03-08T12:52:18;5.90;69.30
12329;DHT22;6230;52.390;10.256;2023-03-08T12:58:13;5.80;69.40
12329;DHT22;6230;52.390;10.256;2023-03-08T13:00:40;5.80;70.00
12329;DHT22;6230;52.390;10.256;2023-03-08T13:05:41;5.70;71.20
12329;DHT22;6230;52.390;10.256;2023-03-08T13:11:03;5.60;72.20
12329;DHT22;6230;52.390;10.256;2023-03-08T13:13:50;5.60;72.50
12329;DHT22;6230;52.390;10.256;2023-03-08T13:16:35;5.50;72.60
12329;DHT22;6230;52.390;10.256;2023-03-08T13:19:15;5.50;73.10
12329;DHT22;6230;52.390;10.256;2023-03-08T13:21:48;5.40;73.00
12329;DHT22;6230;52.390;10.256;2023-03-08T13:27:07;5.50;73.10
12329;DHT22;6230;52.390;10.256;2023-03-08T13:29:34;5.50;73.20
12329;DHT22;6230;52.390;10.256;2023-03-08T13:32:06;5.50;73.10
12329;DHT22;6230;52.390;10.256;2023-03-08T13:34:34;5.50;73.30
12329;DHT22;6230;52.390;10.256;2023-03-08T13:37:00;5.50;74.10
12329;DHT22;6230;52.390;10.256;2023-03-08T13:39:28;5.50;73.50
12329;DHT22;6230;52.390;10.256;2023-03-08T13:42:05;5.50;73.60
12329;DHT22;6230;52.390;10.256;2023-03-08T13:44:31;5.40;73.80
12329;DHT22;6230;52.390;10.256;2023-03-08T13:47:00;5.40;73.80
12329;DHT22;6230;52.390;10.256;2023-03-08T13:49:31;5.50;73.80
12329;DHT22;6230;52.390;10.256;2023-03-08T13:52:00;5.50;73.70
12329;DHT22;6230;52.390;10.256;2023-03-08T13:54:32;5.50;73.60
12329;DHT22;6230;52.390;10.256;2023-03-08T13:57:00;5.50;73.70
12329;DHT22;6230;52.390;10.256;2023-03-08T13:59:27;5.50;73.70
12329;DHT22;6230;52.390;10.256;2023-03-08T14:01:54;5.50;73.70
12329;DHT22;6230;52.390;10.256;2023-03-08T14:04:23;5.50;74.50
12329;DHT22;6230;52.390;10.256;2023-03-08T14:06:51;5.50;73.80
12329;DHT22;6230;52.390;10.256;2023-03-08T14:09:17;5.50;73.70
12329;DHT22;6230;52.390;10.256;2023-03-08T14:11:44;5.60;73.70
12329;DHT22;6230;52.390;10.256;2023-03-08T14:14:25;5.60;73.70
12329;DHT22;6230;52.390;10.256;2023-03-08T14:16:52;5.50;73.70
12329;DHT22;6230;52.390;10.256;2023-03-08T14:19:35;5.50;73.50
12329;DHT22;6230;52.390;10.256;2023-03-08T14:22:09;5.50;73.60
12329;DHT22;6230;52.390;10.256;2023-03-08T14:24:36;5.50;73.60
12329;DHT22;6230;52.390;10.256;2023-03-08T14:27:04;5.60;73.40
12329;DHT22;6230;52.390;10.256;2023-03-08T14:29:32;5.60;73.30
12329;DHT22;6230;52.390;10.256;2023-03-08T14:34:40;5.60;72.90
12329;DHT22;6230;52.390;10.256;2023-03-08T14:39:49;5.50;73.00
12329;DHT22;6230;52.390;10.256;2023-03-08T14:42:43;5.50;73.00
12329;DHT22;6230;52.390;10.256;2023-03-08T14:45:32;5.50;72.90
12329;DHT22;6230;52.390;10.256;2023-03-08T14:53:40;5.70;72.70
12329;DHT22;6230;52.390;10.256;2023-03-08T14:56:11;5.70;72.70
12329;DHT22;6230;52.390;10.256;2023-03-08T14:58:42;5.70;72.60
12329;DHT22;6230;52.390;10.256;2023-03-08T15:01:08;5.70;72.50
12329;DHT22;6230;52.390;10.256;2023-03-08T15:03:34;5.80;72.50
12329;DHT22;6230;52.390;10.256;2023-03-08T15:06:10;5.80;72.40
12329;DHT22;6230;52.390;10.256;2023-03-08T15:08:37;5.80;72.40
12329;DHT22;6230;52.390;10.256;2023-03-08T15:11:02;5.80;72.20
12329;DHT22;6230;52.390;10.256;2023-03-08T15:13:28;5.80;72.20
12329;DHT22;6230;52.390;10.256;2023-03-08T15:15:53;5.80;72.20
12329;DHT22;6230;52.390;10.256;2023-03-08T15:18:19;5.80;72.20
12329;DHT22;6230;52.390;10.256;2023-03-08T15:20:47;5.80;72.20
12329;DHT22;6230;52.390;10.256;2023-03-08T15:23:20;5.80;72.20
12329;DHT22;6230;52.390;10.256;2023-03-08T15:25:46;5.80;72.10
12329;DHT22;6230;52.390;10.256;2023-03-08T15:28:14;5.80;72.20
12329;DHT22;6230;52.390;10.256;2023-03-08T15:30:41;5.90;72.20
12329;DHT22;6230;52.390;10.256;2023-03-08T15:33:06;5.90;72.10
12329;DHT22;6230;52.390;10.256;2023-03-08T15:35:32;5.90;72.10
12329;DHT22;6230;52.390;10.256;2023-03-08T15:37:57;5.90;72.10
12329;DHT22;6230;52.390;10.256;2023-03-08T15:40:26;5.80;72.00
12329;DHT22;6230;52.390;10.256;2023-03-08T15:42:52;5.80;72.20
12329;DHT22;6230;52.390;10.256;2023-03-08T15:45:18;5.80;72.30
12329;DHT22;6230;52.390;10.256;2023-03-08T15:47:43;5.80;72.30
12329;DHT22;6230;52.390;10.256;2023-03-08T15:50:19;5.80;72.30
12329;DHT22;6230;52.390;10.256;2023-03-08T15:52:44;5.80;72.30
12329;DHT22;6230;52.390;10.256;2023-03-08T15:55:14;5.90;72.30
12329;DHT22;6230;52.390;10.256;2023-03-08T15:57:40;5.80;72.20
12329;DHT22;6230;52.390;10.256;2023-03-08T16:00:08;5.80;72.20
12329;DHT22;6230;52.390;10.256;2023-03-08T16:02:36;5.80;72.30
12329;DHT22;6230;52.390;10.256;2023-03-08T16:05:03;5.80;72.30
12329;DHT22;6230;52.390;10.256;2023-03-08T16:07:29;5.90;72.30
12329;DHT22;6230;52.390;10.256;2023-03-08T16:09:54;5.90;72.30
12329;DHT22;6230;52.390;10.256;2023-03-08T16:12:20;5.90;72.30
12329;DHT22;6230;52.390;10.256;2023-03-08T16:14:49;5.90;72.40
12329;DHT22;6230;52.390;10.256;2023-03-08T16:17:16;5.90;72.50
12329;DHT22;6230;52.390;10.256;2023-03-08T16:19:42;5.90;73.20
12329;DHT22;6230;52.390;10.256;2023-03-08T16:22:08;5.90;72.40
12329;DHT22;6230;52.390;10.256;2023-03-08T16:24:34;5.90;72.40
12329;DHT22;6230;52.390;10.256;2023-03-08T16:26:59;5.90;72.40
12329;DHT22;6230;52.390;10.256;2023-03-08T16:29:25;5.90;72.50
12329;DHT22;6230;52.390;10.256;2023-03-08T16:31:51;5.90;72.60
12329;DHT22;6230;52.390;10.256;2023-03-08T16:34:17;5.90;72.60
12329;DHT22;6230;52.390;10.256;2023-03-08T16:36:43;5.80;72.70
12329;DHT22;6230;52.390;10.256;2023-03-08T16:39:09;5.80;72.70
12329;DHT22;6230;52.390;10.256;2023-03-08T16:41:36;5.80;72.80
12329;DHT22;6230;52.390;10.256;2023-03-08T16:44:03;5.80;72.90
12329;DHT22;6230;52.390;10.256;2023-03-08T16:46:29;5.80;73.00
12329;DHT22;6230;52.390;10.256;2023-03-08T16:48:55;5.80;73.00
12329;DHT22;6230;52.390;10.256;2023-03-08T16:51:24;5.80;72.90
12329;DHT22;6230;52.390;10.256;2023-03-08T16:53:50;5.80;73.00
12329;DHT22;6230;52.390;10.256;2023-03-08T16:56:21;5.70;73.00
12329;DHT22;6230;52.390;10.256;2023-03-08T16:58:47;5.70;73.10
12329;DHT22;6230;52.390;10.256;2023-03-08T17:01:14;5.70;73.00